Estación Meteorológica Peña el Pijo (Robertgarden) [ 01/30/23 13:48:02 CET ]

Fecha Hora Presion(HPa) Temp (°C) Humedad % Rocio (°C) Viento ( m/s) Direccion Lluvia 1Hora(mm) Lluvia 24H(mm) LLuvia Total(mm)
2010-Jan-10 01:08:12 1005.600 - - - - SSW   0.51 62.67
2010-Jan-10 02:10:11 1005.500 - - - - SSW   0.51 62.67
2010-Jan-10 03:01:13 1005.400 -5.1 79 -8.2       0.51 62.67
2010-Jan-10 04:01:12 1005.600 -6.2 81 -8.9       0.51 62.67
2010-Jan-10 05:01:14 1004.900 -6.4 82 -9.0       0.51 62.67
2010-Jan-10 06:01:14 1005.000 -6.4 82 -9.0       0.51 62.67
2010-Jan-10 07:01:14 1004.700 -5.9 80 -8.8       0.51 62.67
2010-Jan-10 08:01:22 1004.900 -5.4 75 -9.2       0.51 62.67
2010-Jan-10 09:01:15 1004.800 -6.1 75 -9.8       0.51 62.67
2010-Jan-10 10:01:13 1004.900 -2.6 69 -7.5       0.51 62.67
2010-Jan-10 11:01:11 1004.700 0.8 53 -7.8       0.51 62.67
2010-Jan-10 12:01:18 1004.000 1.8 41 -10.1       0.51 62.67
2010-Jan-10 13:01:17 1003.100 2.7 42 -8.6         62.67
2010-Jan-10 14:01:17 1002.300 2.5 44 -8.6         62.67
2010-Jan-10 15:01:14 1001.500 1.9 47 -8.3         62.67
2010-Jan-10 16:01:12 1001.900 1.1 52 -7.7     0.51 0.51 63.19
2010-Jan-10 17:01:11 1001.500 -0.7 70 -5.5       0.51 63.19
2010-Jan-10 18:01:13 1001.400 -1.6 82 -4.3       0.51 63.19
2010-Jan-10 19:01:12 1000.800 -1.8 86 -3.8       0.51 63.19
2010-Jan-10 20:01:12 1000.700 -1.8 87 -3.7       0.51 63.19
2010-Jan-10 21:01:14 1001.300 -1.8 88 -3.5       0.51 63.19
2010-Jan-10 22:01:15 1001.000 -2.0 88 -3.7       0.51 63.19
2010-Jan-10 23:01:15 1001.200 -2.1 89 -3.7       0.51 63.19

Temperatura Máxima:    Temperatura Mínima:-6°
Presión Máxima:1005.600 Hpa    Presión Mínima:1000.700 Hpa


Volver